Pagina principale
METAR-TAF:

METAR-TAF

Aeroporti :

Sion, Svizzera

latitudine: 46-13N, longitudine: 007-20E, altezza: 482 m

Osservazione

Il bollettino è stato emesso 32 minuti fa, alle 23:20 UTC
Vento 4 kt da est/nord-est, variando fra nord/nord-est e est
Temperature 20°C
Umidità 68%
Pressione 1019 hPa
Visibilità 10 km o più
nessuna nube inferiore a 1500 m e nessun cumulonembo

METAR: LSGS 142320Z AUTO 06004KT 020V090 CAVOK 20/14 Q1019

Ora: 01:52 (23:52 UTC)

Previsione

Il bollettino è stato emesso 9 ore e 27 minuti fa, alle 14:25 UTC
Previsione valida dal 14 alle 15 UTC al 14 alle 24 UTC
Vento 12 kt da ovest/sud-ovest
Visibilità 10 km o più
Poco nuvoloso ad un'altezza di 10000 ft
Evoluzione graduale
dal 14 alle 18 UTC al 14 alle 20 UTC
Vento 2 kt da direzioni variabili
Visibilità 10 km o più
nessuna nube inferiore a 1500 m e nessun cumulonembo

TAF: LSGS 141425Z 1415/1424 25012KT 9999 FEW100 BECMG 1418/1420 VRB02KT CAVOK

Osservazioni e previsioni meteorologiche di più di 4000 aeroporti (messaggi METAR e TAF).

Le stazioni disponibili sono rappresentate dai dischi gialli e rossi sulla carta.

Puntare il mouse per vedere il nome della stazione.

Clicca sopra per visualizzare le osservazioni e previsioni meteorologiche.

Per cambiare la mappa : fare clic sui pulsanti verdi con una croce nera per ingrandire, il pulsante verde con un trattino per diminuire, o sulla freccia verde per le mappe adiacenti.


METAR-TAF: